createdAt,value
2023-04-19T00:00:54.523Z,10.39
2023-04-19T00:01:54.754Z,10.39
2023-04-19T00:02:54.753Z,10.44
2023-04-19T00:03:54.558Z,10.43
2023-04-19T00:04:54.549Z,10.43
2023-04-19T00:05:54.492Z,10.43
2023-04-19T00:06:54.472Z,10.40
2023-04-19T00:07:54.461Z,10.30
2023-04-19T00:08:54.449Z,10.40
2023-04-19T00:09:54.435Z,10.44
2023-04-19T00:10:54.426Z,10.36
2023-04-19T00:11:54.424Z,10.39
2023-04-19T00:12:54.388Z,10.40
2023-04-19T00:13:54.385Z,10.39
2023-04-19T00:14:54.374Z,10.40
2023-04-19T00:15:54.365Z,10.42
2023-04-19T00:16:54.387Z,10.39
2023-04-19T00:17:54.600Z,10.42
2023-04-19T00:18:54.334Z,10.39
2023-04-19T00:19:54.334Z,10.32
2023-04-19T00:20:54.307Z,10.32
2023-04-19T00:21:54.314Z,10.28
2023-04-19T00:22:54.310Z,10.40
2023-04-19T00:23:54.276Z,10.28
2023-04-19T00:24:54.289Z,10.21
2023-04-19T00:25:54.256Z,10.30
2023-04-19T00:26:54.263Z,10.25
2023-04-19T00:27:54.234Z,10.26
2023-04-19T00:28:54.221Z,10.32
2023-04-19T00:29:54.228Z,10.32
2023-04-19T00:30:54.228Z,10.34
2023-04-19T00:31:54.229Z,10.34
2023-04-19T00:32:54.233Z,10.39
2023-04-19T00:33:54.177Z,10.34
2023-04-19T00:34:54.167Z,10.42
2023-04-19T00:35:54.153Z,10.34
2023-04-19T00:36:54.157Z,10.47
2023-04-19T00:37:54.129Z,10.37
2023-04-19T00:38:54.121Z,10.43
2023-04-19T00:39:54.125Z,10.44
2023-04-19T00:40:54.094Z,10.39
2023-04-19T00:41:54.106Z,10.43
2023-04-19T00:42:54.076Z,10.39
2023-04-19T00:43:54.064Z,10.33
2023-04-19T00:44:54.054Z,10.33
2023-04-19T00:45:54.088Z,10.33
2023-04-19T00:46:54.046Z,10.25
2023-04-19T00:47:54.075Z,10.26
2023-04-19T00:48:54.029Z,10.34
2023-04-19T00:49:54.012Z,10.32
2023-04-19T00:50:54.034Z,10.30
2023-04-19T00:51:53.998Z,10.26
2023-04-19T00:52:53.978Z,10.36
2023-04-19T00:53:53.972Z,10.37
2023-04-19T00:54:53.969Z,10.24
2023-04-19T00:55:53.944Z,10.32
2023-04-19T00:56:54.089Z,10.33
2023-04-19T00:57:53.927Z,10.30
2023-04-19T00:58:53.923Z,10.34
2023-04-19T00:59:53.904Z,10.24
2023-04-19T01:00:53.889Z,10.33
2023-04-19T01:01:53.918Z,10.34
2023-04-19T01:02:54.041Z,10.37
2023-04-19T01:03:53.962Z,10.26
2023-04-19T01:04:53.848Z,10.30
2023-04-19T01:05:53.848Z,10.39
2023-04-19T01:06:53.829Z,10.40
2023-04-19T01:07:53.830Z,10.40
2023-04-19T01:08:53.807Z,10.37
2023-04-19T01:09:53.795Z,10.51
2023-04-19T01:10:53.778Z,10.28
2023-04-19T01:11:53.775Z,10.32
2023-04-19T01:12:53.780Z,10.39
2023-04-19T01:13:53.753Z,10.47
2023-04-19T01:14:53.741Z,10.42
2023-04-19T01:15:53.757Z,10.37
2023-04-19T01:16:53.717Z,10.37
2023-04-19T01:17:53.834Z,10.42
2023-04-19T01:18:53.694Z,10.36
2023-04-19T01:19:53.688Z,10.40
2023-04-19T01:20:53.698Z,10.36
2023-04-19T01:21:53.707Z,10.37
2023-04-19T01:22:53.670Z,10.33
2023-04-19T01:23:53.651Z,10.39
2023-04-19T01:24:53.634Z,10.36
2023-04-19T01:25:53.629Z,10.32
2023-04-19T01:26:53.612Z,10.24
2023-04-19T01:27:53.615Z,10.26
2023-04-19T01:28:53.658Z,10.22
2023-04-19T01:29:53.583Z,10.28
2023-04-19T01:30:53.579Z,10.28
2023-04-19T01:31:53.756Z,10.24
2023-04-19T01:32:53.606Z,10.30
2023-04-19T01:33:53.552Z,10.25
2023-04-19T01:34:53.562Z,10.24
2023-04-19T01:35:53.522Z,10.25
2023-04-19T01:36:53.546Z,10.21
2023-04-19T01:37:53.520Z,10.30
2023-04-19T01:38:53.486Z,10.24
2023-04-19T01:39:53.480Z,10.17
2023-04-19T01:40:53.468Z,10.26
2023-04-19T01:41:53.463Z,10.19
2023-04-19T01:42:53.465Z,10.26
2023-04-19T01:43:53.444Z,10.24
2023-04-19T01:44:53.431Z,10.28
2023-04-19T01:45:53.425Z,10.26
2023-04-19T01:46:53.453Z,10.32
2023-04-19T01:47:53.461Z,10.22
2023-04-19T01:48:53.390Z,10.24
2023-04-19T01:49:53.390Z,10.34
2023-04-19T01:50:53.374Z,10.26
2023-04-19T01:51:53.386Z,10.34
2023-04-19T01:52:53.361Z,10.26
2023-04-19T01:53:53.341Z,10.32
2023-04-19T01:54:53.335Z,10.36
2023-04-19T01:55:53.332Z,10.34
2023-04-19T01:56:53.309Z,10.32
2023-04-19T01:57:54.596Z,10.30
2023-04-19T01:58:53.299Z,10.32
2023-04-19T01:59:53.314Z,10.37
2023-04-19T02:00:53.387Z,10.34
2023-04-19T02:01:53.327Z,10.34
2023-04-19T02:02:53.392Z,10.28
2023-04-19T02:03:53.348Z,10.26
2023-04-19T02:04:53.250Z,10.26
2023-04-19T02:05:53.224Z,10.28
2023-04-19T02:06:53.214Z,10.24
2023-04-19T02:07:53.213Z,10.19
2023-04-19T02:08:53.189Z,10.28
2023-04-19T02:09:53.206Z,10.25
2023-04-19T02:10:53.172Z,10.32
2023-04-19T02:11:53.163Z,10.30
2023-04-19T02:12:53.162Z,10.15
2023-04-19T02:13:53.181Z,10.15
2023-04-19T02:14:53.127Z,10.21
2023-04-19T02:15:53.139Z,10.30
2023-04-19T02:16:53.300Z,10.28
2023-04-19T02:17:53.212Z,10.25
2023-04-19T02:18:53.084Z,10.21
2023-04-19T02:19:53.086Z,10.17
2023-04-19T02:20:53.064Z,10.26
2023-04-19T02:21:53.061Z,10.15
2023-04-19T02:22:53.056Z,10.18
2023-04-19T02:23:53.032Z,10.12
2023-04-19T02:24:53.043Z,10.10
2023-04-19T02:25:53.018Z,10.21
2023-04-19T02:26:54.158Z,10.24
2023-04-19T02:27:54.160Z,10.17
2023-04-19T02:28:54.147Z,10.26
2023-04-19T02:29:54.128Z,10.19
2023-04-19T02:30:54.114Z,10.25
2023-04-19T02:31:54.134Z,10.15
2023-04-19T02:32:54.120Z,10.19
2023-04-19T02:33:54.094Z,10.12
2023-04-19T02:34:54.067Z,10.15
2023-04-19T02:35:54.060Z,10.09
2023-04-19T02:36:54.075Z,10.19
2023-04-19T02:37:54.056Z,10.15
2023-04-19T02:38:54.031Z,10.19
2023-04-19T02:39:54.022Z,10.14
2023-04-19T02:40:54.028Z,10.24
2023-04-19T02:41:54.062Z,10.15
2023-04-19T02:42:54.003Z,10.19
2023-04-19T02:43:53.975Z,10.18
2023-04-19T02:44:54.004Z,10.06
2023-04-19T02:45:54.018Z,10.21
2023-04-19T02:46:54.962Z,10.22
2023-04-19T02:47:54.035Z,10.14
2023-04-19T02:48:53.947Z,10.15
2023-04-19T02:49:53.922Z,10.17
2023-04-19T02:50:53.932Z,10.10
2023-04-19T02:51:53.894Z,10.14
2023-04-19T02:52:53.916Z,10.17
2023-04-19T02:53:53.899Z,10.10
2023-04-19T02:54:53.874Z,10.10
2023-04-19T02:55:53.892Z,10.01
2023-04-19T02:56:53.883Z,10.03
2023-04-19T02:57:53.869Z,9.99
2023-04-19T02:58:53.843Z,10.04
2023-04-19T02:59:53.849Z,9.88
2023-04-19T03:00:53.871Z,9.88
2023-04-19T03:01:53.799Z,9.88
2023-04-19T03:02:54.003Z,9.86
2023-04-19T03:03:53.865Z,9.79
2023-04-19T03:04:53.769Z,9.78
2023-04-19T03:05:53.767Z,9.82
2023-04-19T03:06:53.757Z,9.81
2023-04-19T03:07:53.761Z,9.83
2023-04-19T03:08:53.776Z,9.82
2023-04-19T03:09:53.735Z,9.75
2023-04-19T03:10:53.710Z,9.81
2023-04-19T03:11:53.705Z,9.83
2023-04-19T03:12:53.714Z,9.78
2023-04-19T03:13:53.697Z,9.79
2023-04-19T03:14:53.751Z,9.76
2023-04-19T03:15:53.724Z,9.79
2023-04-19T03:16:53.655Z,9.85
2023-04-19T03:17:53.680Z,9.86
2023-04-19T03:18:53.644Z,9.86
2023-04-19T03:19:53.618Z,9.91
2023-04-19T03:20:53.599Z,9.88
2023-04-19T03:21:53.609Z,9.85
2023-04-19T03:22:53.609Z,9.82
2023-04-19T03:23:53.599Z,9.89
2023-04-19T03:24:53.565Z,9.78
2023-04-19T03:25:53.567Z,9.85
2023-04-19T03:26:53.541Z,9.82
2023-04-19T03:27:53.543Z,9.76
2023-04-19T03:28:53.514Z,9.75
2023-04-19T03:29:53.509Z,9.76
2023-04-19T03:30:53.523Z,9.68
2023-04-19T03:31:53.485Z,9.79
2023-04-19T03:32:53.538Z,9.70
2023-04-19T03:33:53.488Z,9.71
2023-04-19T03:34:53.446Z,9.73
2023-04-19T03:35:53.437Z,9.73
2023-04-19T03:36:53.446Z,9.73
2023-04-19T03:37:53.436Z,9.71
2023-04-19T03:38:53.427Z,9.70
2023-04-19T03:39:53.391Z,9.75
2023-04-19T03:40:53.390Z,9.68
2023-04-19T03:41:53.380Z,9.68
2023-04-19T03:42:53.388Z,9.64
2023-04-19T03:43:53.397Z,9.67
2023-04-19T03:44:53.340Z,9.76
2023-04-19T03:45:53.366Z,9.73
2023-04-19T03:46:53.319Z,9.75
2023-04-19T03:47:53.357Z,9.73
2023-04-19T03:48:53.330Z,9.61
2023-04-19T03:49:53.317Z,9.63
2023-04-19T03:50:53.297Z,9.73
2023-04-19T03:51:53.294Z,9.58
2023-04-19T03:52:53.290Z,9.66
2023-04-19T03:53:53.271Z,9.61
2023-04-19T03:54:53.249Z,9.58
2023-04-19T03:55:53.238Z,9.66
2023-04-19T03:56:53.246Z,9.53
2023-04-19T03:57:53.237Z,9.63
2023-04-19T03:58:53.218Z,9.53
2023-04-19T03:59:53.205Z,9.58
2023-04-19T04:00:53.188Z,9.64
2023-04-19T04:01:53.199Z,9.67
2023-04-19T04:02:53.374Z,9.58
2023-04-19T04:03:53.594Z,9.68
2023-04-19T04:04:53.241Z,9.57
2023-04-19T04:05:53.129Z,9.52
2023-04-19T04:06:53.124Z,9.66
2023-04-19T04:07:53.115Z,9.60
2023-04-19T04:08:53.129Z,9.67
2023-04-19T04:09:53.080Z,9.71
2023-04-19T04:10:53.090Z,9.75
2023-04-19T04:11:53.071Z,9.64
2023-04-19T04:12:53.066Z,9.64
2023-04-19T04:13:53.062Z,9.60
2023-04-19T04:14:53.042Z,9.64
2023-04-19T04:15:53.050Z,9.63
2023-04-19T04:16:53.039Z,9.57
2023-04-19T04:17:53.064Z,9.60
2023-04-19T04:18:54.016Z,9.52
2023-04-19T04:19:52.993Z,9.52
2023-04-19T04:20:52.980Z,9.56
2023-04-19T04:21:52.974Z,9.56
2023-04-19T04:22:52.947Z,9.53
2023-04-19T04:23:52.951Z,9.50
2023-04-19T04:24:52.930Z,9.50
2023-04-19T04:25:52.946Z,9.40
2023-04-19T04:26:52.923Z,9.40
2023-04-19T04:27:52.954Z,9.40
2023-04-19T04:28:52.918Z,9.45
2023-04-19T04:29:52.897Z,9.46
2023-04-19T04:30:53.875Z,9.46
2023-04-19T04:31:52.966Z,9.42
2023-04-19T04:32:52.925Z,9.34
2023-04-19T04:33:52.889Z,9.42
2023-04-19T04:34:52.843Z,9.35
2023-04-19T04:35:52.865Z,9.34
2023-04-19T04:36:52.834Z,9.32
2023-04-19T04:37:52.827Z,9.31
2023-04-19T04:38:52.833Z,9.45
2023-04-19T04:39:52.816Z,9.32
2023-04-19T04:40:52.805Z,9.28
2023-04-19T04:41:52.798Z,9.45
2023-04-19T04:42:52.772Z,9.32
2023-04-19T04:44:08.250Z,9.48
2023-04-19T04:44:54.754Z,9.42
2023-04-19T04:45:52.795Z,9.45
2023-04-19T04:46:52.731Z,9.46
2023-04-19T04:47:52.879Z,9.35
2023-04-19T04:48:52.720Z,9.32
2023-04-19T04:49:52.711Z,9.31
2023-04-19T04:50:52.733Z,9.28
2023-04-19T04:51:52.729Z,9.35
2023-04-19T04:52:52.673Z,9.38
2023-04-19T04:53:52.673Z,9.32
2023-04-19T04:54:52.664Z,9.30
2023-04-19T04:55:52.660Z,9.28
2023-04-19T04:56:52.691Z,9.35
2023-04-19T04:57:52.628Z,9.35
2023-04-19T04:58:52.615Z,9.38
2023-04-19T04:59:52.630Z,9.42
2023-04-19T05:00:52.647Z,9.34
2023-04-19T05:01:52.585Z,9.35
2023-04-19T05:02:52.688Z,9.42
2023-04-19T05:03:52.578Z,9.38
2023-04-19T05:04:52.589Z,9.42
2023-04-19T05:05:52.544Z,9.48
2023-04-19T05:06:52.546Z,9.39
2023-04-19T05:07:52.531Z,9.43
2023-04-19T05:08:52.501Z,9.49
2023-04-19T05:09:52.491Z,9.42
2023-04-19T05:10:52.484Z,9.40
2023-04-19T05:11:52.466Z,9.34
2023-04-19T05:12:52.492Z,9.45
2023-04-19T05:13:53.468Z,9.43
2023-04-19T05:14:52.434Z,9.48
2023-04-19T05:15:52.474Z,9.42
2023-04-19T05:16:52.436Z,9.46
2023-04-19T05:17:52.570Z,9.56
2023-04-19T05:18:52.400Z,9.53
2023-04-19T05:19:52.425Z,9.45
2023-04-19T05:20:52.373Z,9.35
2023-04-19T05:21:52.369Z,9.46
2023-04-19T05:22:52.374Z,9.50
2023-04-19T05:23:52.358Z,9.57
2023-04-19T05:24:52.353Z,9.49
2023-04-19T05:25:52.329Z,9.53
2023-04-19T05:26:52.313Z,9.64
2023-04-19T05:27:52.311Z,9.57
2023-04-19T05:28:52.313Z,9.61
2023-04-19T05:29:52.284Z,9.61
2023-04-19T05:30:52.277Z,9.66
2023-04-19T05:31:52.364Z,9.57
2023-04-19T05:32:53.313Z,9.58
2023-04-19T05:33:52.269Z,9.57
2023-04-19T05:34:52.244Z,9.63
2023-04-19T05:35:52.219Z,9.71
2023-04-19T05:36:52.209Z,9.58
2023-04-19T05:37:52.204Z,9.71
2023-04-19T05:38:52.243Z,9.89
2023-04-19T05:39:52.205Z,9.89
2023-04-19T05:40:52.185Z,10.03
2023-04-19T05:41:52.152Z,10.04
2023-04-19T05:42:52.136Z,10.03
2023-04-19T05:43:53.166Z,9.91
2023-04-19T05:44:52.129Z,9.99
2023-04-19T05:45:52.189Z,10.10
2023-04-19T05:46:52.109Z,10.00
2023-04-19T05:47:52.143Z,9.96
2023-04-19T05:48:52.121Z,10.06
2023-04-19T05:49:52.087Z,10.07
2023-04-19T05:50:52.069Z,9.97
2023-04-19T05:51:52.052Z,10.10
2023-04-19T05:52:52.038Z,10.25
2023-04-19T05:53:52.672Z,10.19
2023-04-19T05:54:52.018Z,10.22
2023-04-19T05:55:53.037Z,10.28
2023-04-19T05:56:52.020Z,10.24
2023-04-19T05:57:51.989Z,10.28
2023-04-19T05:58:51.989Z,10.28
2023-04-19T05:59:52.002Z,10.19
2023-04-19T06:00:51.986Z,10.22
2023-04-19T06:01:51.967Z,10.15
2023-04-19T06:02:53.086Z,10.15
2023-04-19T06:03:52.295Z,10.18
2023-04-19T06:04:51.959Z,10.21
2023-04-19T06:05:52.064Z,10.10
2023-04-19T06:06:51.949Z,10.07
2023-04-19T06:07:55.621Z,10.15
2023-04-19T06:08:54.807Z,10.19
2023-04-19T06:09:52.963Z,10.33
2023-04-19T06:10:55.759Z,10.42
2023-04-19T06:11:53.959Z,10.32
2023-04-19T06:12:51.936Z,10.26
2023-04-19T06:13:52.040Z,10.22
2023-04-19T06:14:52.060Z,10.26
2023-04-19T06:15:52.017Z,10.22
2023-04-19T06:16:51.955Z,10.12
2023-04-19T06:17:52.006Z,10.10
2023-04-19T06:18:51.847Z,10.12
2023-04-19T06:19:51.825Z,10.19
2023-04-19T06:20:51.793Z,10.03
2023-04-19T06:21:51.830Z,10.01
2023-04-19T06:22:51.860Z,10.04
2023-04-19T06:23:51.899Z,9.89
2023-04-19T06:24:51.806Z,9.82
2023-04-19T06:25:51.821Z,9.96
2023-04-19T06:26:51.781Z,9.81
2023-04-19T06:27:51.799Z,9.66
2023-04-19T06:28:51.719Z,9.58
2023-04-19T06:29:51.687Z,9.57
2023-04-19T06:30:51.783Z,9.48
2023-04-19T06:31:51.829Z,9.52
2023-04-19T06:32:51.741Z,9.57
2023-04-19T06:33:51.710Z,9.58
2023-04-19T06:34:51.719Z,9.60
2023-04-19T06:35:51.731Z,9.56
2023-04-19T06:36:51.734Z,9.53
2023-04-19T06:37:52.719Z,9.63
2023-04-19T06:38:51.682Z,9.70
2023-04-19T06:39:51.719Z,9.64
2023-04-19T06:40:51.690Z,9.60
2023-04-19T06:41:51.866Z,9.60
2023-04-19T06:42:51.742Z,9.53
2023-04-19T06:43:51.616Z,9.60
2023-04-19T06:44:51.691Z,9.58
2023-04-19T06:45:51.950Z,9.50
2023-04-19T06:46:51.673Z,9.58
2023-04-19T06:47:51.590Z,9.70
2023-04-19T06:48:51.485Z,9.67
2023-04-19T06:49:51.520Z,9.79
2023-04-19T06:50:51.444Z,9.81
2023-04-19T06:51:51.448Z,9.86
2023-04-19T06:52:51.416Z,9.76
2023-04-19T06:53:52.401Z,9.66
2023-04-19T06:54:51.416Z,9.71
2023-04-19T06:55:51.385Z,9.57
2023-04-19T06:56:51.502Z,9.63
2023-04-19T06:57:51.467Z,9.48
2023-04-19T06:58:52.955Z,9.43
2023-04-19T06:59:51.507Z,9.43
2023-04-19T07:00:51.599Z,9.43
2023-04-19T07:01:51.612Z,9.52
2023-04-19T07:02:51.462Z,9.42
2023-04-19T07:03:51.552Z,9.40
2023-04-19T07:04:51.488Z,9.46
2023-04-19T07:05:51.395Z,9.56
2023-04-19T07:06:52.146Z,9.79
2023-04-19T07:07:51.329Z,10.15
2023-04-19T07:08:51.472Z,10.37
2023-04-19T07:09:51.855Z,10.81
2023-04-19T07:10:51.708Z,11.46
2023-04-19T07:11:51.417Z,11.86
2023-04-19T07:12:51.305Z,11.78
2023-04-19T07:13:51.359Z,12.09
2023-04-19T07:14:51.485Z,12.26
2023-04-19T07:15:51.380Z,12.54
2023-04-19T07:16:52.699Z,12.45
2023-04-19T07:17:51.305Z,12.62
2023-04-19T07:18:51.265Z,12.79
2023-04-19T07:19:51.309Z,12.97
2023-04-19T07:20:51.299Z,13.21
2023-04-19T07:21:51.254Z,13.63
2023-04-19T07:22:51.308Z,13.89
2023-04-19T07:23:51.633Z,14.29
2023-04-19T07:24:51.344Z,14.16
2023-04-19T07:25:51.135Z,14.24
2023-04-19T07:26:51.178Z,14.71
2023-04-19T07:27:52.278Z,14.80
2023-04-19T07:28:51.120Z,14.84
2023-04-19T07:29:51.071Z,15.19
2023-04-19T07:30:51.146Z,15.57
2023-04-19T07:31:51.120Z,16.06
2023-04-19T07:32:52.095Z,15.97
2023-04-19T07:33:51.099Z,16.01
2023-04-19T07:34:51.129Z,16.27
2023-04-19T07:35:51.213Z,16.75
2023-04-19T07:36:51.067Z,16.56
2023-04-19T07:37:51.025Z,16.53
2023-04-19T07:38:50.990Z,16.37
2023-04-19T07:39:51.018Z,16.33
2023-04-19T07:40:50.992Z,16.15
2023-04-19T07:41:50.969Z,16.27
2023-04-19T07:42:51.830Z,16.09
2023-04-19T07:43:50.909Z,16.27
2023-04-19T07:44:50.890Z,15.81
2023-04-19T07:45:51.920Z,15.43
2023-04-19T07:46:51.064Z,14.84
2023-04-19T07:47:50.905Z,14.75
2023-04-19T07:48:51.951Z,14.84
2023-04-19T07:49:51.280Z,14.46
2023-04-19T07:50:58.752Z,14.46
2023-04-19T07:51:50.940Z,14.43
2023-04-19T07:52:50.870Z,14.46
2023-04-19T07:53:50.820Z,14.17
2023-04-19T07:54:50.836Z,14.38
2023-04-19T07:55:50.876Z,14.60
2023-04-19T07:56:50.816Z,14.61
2023-04-19T07:57:50.790Z,14.62
2023-04-19T07:59:04.406Z,14.65
2023-04-19T07:59:52.784Z,14.44
2023-04-19T08:00:50.902Z,14.35
2023-04-19T08:01:50.895Z,14.46
2023-04-19T08:02:50.944Z,14.39
2023-04-19T08:03:51.005Z,14.47
2023-04-19T08:04:51.158Z,14.43
2023-04-19T08:05:51.000Z,14.28
2023-04-19T08:06:50.733Z,14.28
2023-04-19T08:07:50.777Z,13.87
2023-04-19T08:08:50.783Z,13.81
2023-04-19T08:09:50.889Z,13.65
2023-04-19T08:10:50.752Z,13.62
2023-04-19T08:11:50.718Z,13.74
2023-04-19T08:13:03.699Z,13.69
2023-04-19T08:14:04.419Z,13.81
2023-04-19T08:15:02.547Z,13.80
2023-04-19T08:17:51.684Z,13.96
2023-04-19T08:18:50.922Z,13.74
2023-04-19T08:19:50.566Z,13.80
2023-04-19T08:20:50.602Z,13.98
2023-04-19T08:21:50.575Z,13.92
2023-04-19T08:22:50.783Z,13.83
2023-04-19T08:23:52.624Z,13.77
2023-04-19T08:24:50.507Z,13.73
2023-04-19T08:25:50.547Z,13.91
2023-04-19T08:26:50.540Z,14.25
2023-04-19T08:27:50.589Z,14.50
2023-04-19T08:28:50.713Z,14.29
2023-04-19T08:29:50.569Z,14.29
2023-04-19T08:30:50.607Z,14.29
2023-04-19T08:31:50.572Z,14.65
2023-04-19T08:32:50.654Z,15.11
2023-04-19T08:33:50.438Z,15.23
2023-04-19T08:34:50.509Z,15.02
2023-04-19T08:35:50.490Z,14.72
2023-04-19T08:36:56.189Z,14.38
2023-04-19T08:37:52.396Z,14.27
2023-04-19T08:39:01.973Z,14.46
2023-04-19T08:39:52.445Z,14.52
2023-04-19T08:40:50.308Z,14.60
2023-04-19T08:41:59.050Z,14.61
2023-04-19T08:42:52.300Z,14.84
2023-04-19T08:43:50.296Z,14.69
2023-04-19T08:45:06.343Z,14.61
2023-04-19T08:45:52.337Z,14.50
2023-04-19T08:46:50.273Z,14.52
2023-04-19T08:47:59.806Z,14.53
2023-04-19T08:48:52.577Z,14.42
2023-04-19T08:50:03.802Z,14.39
2023-04-19T08:51:03.455Z,14.44
2023-04-19T08:51:52.353Z,14.31
2023-04-19T08:52:56.004Z,14.21
2023-04-19T08:53:52.209Z,14.21
2023-04-19T08:54:50.190Z,14.02
2023-04-19T08:56:08.844Z,14.19
2023-04-19T08:56:52.335Z,14.56
2023-04-19T08:57:50.142Z,14.65
2023-04-19T08:59:51.227Z,14.68
2023-04-19T09:00:50.174Z,14.68
2023-04-19T09:01:50.115Z,14.47
2023-04-19T09:02:50.395Z,14.62
2023-04-19T09:04:02.282Z,14.74
2023-04-19T09:04:52.446Z,15.11
2023-04-19T09:05:50.443Z,15.31
2023-04-19T09:06:50.092Z,15.39
2023-04-19T09:07:50.138Z,15.63
2023-04-19T09:08:50.008Z,15.59
2023-04-19T09:10:00.064Z,15.51
2023-04-19T09:10:51.960Z,15.59
2023-04-19T09:11:50.993Z,15.67
2023-04-19T09:12:50.066Z,15.82
2023-04-19T09:13:51.276Z,15.66
2023-04-19T09:15:01.306Z,15.54
2023-04-19T09:15:51.900Z,15.56
2023-04-19T09:16:49.934Z,15.36
2023-04-19T09:17:49.992Z,15.36
2023-04-19T09:18:59.985Z,15.13
2023-04-19T09:19:51.886Z,15.01
2023-04-19T09:20:49.957Z,14.93
2023-04-19T09:21:49.897Z,14.86
2023-04-19T09:22:49.897Z,14.86
2023-04-19T09:23:49.911Z,14.62
2023-04-19T09:26:15.202Z,15.03
2023-04-19T09:26:51.760Z,15.45
2023-04-19T09:27:49.844Z,15.68
2023-04-19T09:28:49.881Z,15.88
2023-04-19T09:29:49.939Z,15.92
2023-04-19T09:31:03.227Z,15.84
2023-04-19T09:31:52.367Z,15.61
2023-04-19T09:32:50.929Z,15.43
2023-04-19T09:33:49.839Z,15.49
2023-04-19T09:34:49.773Z,15.63
2023-04-19T09:35:49.734Z,16.01
2023-04-19T09:36:54.564Z,16.12
2023-04-19T09:38:04.718Z,16.12
2023-04-19T09:38:51.746Z,16.23
2023-04-19T09:39:49.753Z,16.07
2023-04-19T09:40:49.684Z,15.85
2023-04-19T09:41:49.664Z,15.79
2023-04-19T09:45:16.895Z,15.57
2023-04-19T09:45:51.604Z,15.88
2023-04-19T09:46:52.374Z,15.57
2023-04-19T09:47:49.609Z,15.63
2023-04-19T09:48:49.657Z,15.78
2023-04-19T09:49:49.931Z,15.88
2023-04-19T09:50:56.549Z,15.99
2023-04-19T09:51:51.545Z,16.26
2023-04-19T09:52:49.756Z,16.63
2023-04-19T09:53:49.571Z,16.98
2023-04-19T09:54:49.596Z,17.10
2023-04-19T09:56:00.412Z,16.98
2023-04-19T09:56:51.626Z,16.88
2023-04-19T09:57:49.576Z,17.00
2023-04-19T09:58:52.814Z,16.89
2023-04-19T09:59:51.501Z,17.04
2023-04-19T10:00:53.089Z,17.13
2023-04-19T10:01:51.604Z,17.22
2023-04-19T10:02:51.950Z,17.23
2023-04-19T10:03:51.578Z,17.13
2023-04-19T10:05:03.264Z,17.04
2023-04-19T10:05:51.521Z,16.81
2023-04-19T10:07:13.925Z,16.70
2023-04-19T10:07:51.462Z,16.49
2023-04-19T10:08:49.480Z,16.56
2023-04-19T10:09:53.612Z,16.85
2023-04-19T10:10:51.485Z,16.93
2023-04-19T10:11:51.213Z,17.13
2023-04-19T10:13:07.411Z,17.04
2023-04-19T10:13:51.400Z,17.08
2023-04-19T10:14:49.478Z,17.63
2023-04-19T10:15:52.747Z,17.28
2023-04-19T10:16:51.378Z,17.17
2023-04-19T10:17:49.389Z,16.93
2023-04-19T10:18:49.300Z,17.20
2023-04-19T10:19:49.335Z,17.20
2023-04-19T10:20:49.340Z,16.95
2023-04-19T10:21:49.324Z,17.08
2023-04-19T10:22:49.403Z,17.04
2023-04-19T10:23:49.336Z,17.03
2023-04-19T10:24:49.406Z,17.14
2023-04-19T10:25:50.056Z,17.28
2023-04-19T10:26:49.316Z,17.33
2023-04-19T10:27:49.277Z,17.35
2023-04-19T10:28:49.344Z,17.38
2023-04-19T10:29:49.184Z,17.29
2023-04-19T10:30:49.256Z,17.41
2023-04-19T10:31:49.233Z,17.81
2023-04-19T10:32:49.236Z,17.79
2023-04-19T10:33:49.255Z,17.89
2023-04-19T10:34:49.231Z,17.84
2023-04-19T10:35:49.292Z,17.82
2023-04-19T10:36:49.197Z,18.00
2023-04-19T10:37:49.123Z,17.99
2023-04-19T10:38:49.134Z,18.04
2023-04-19T10:39:49.159Z,18.25
2023-04-19T10:40:49.152Z,18.43
2023-04-19T10:41:49.102Z,18.37
2023-04-19T10:42:49.053Z,17.87
2023-04-19T10:43:49.039Z,17.50
2023-04-19T10:44:49.052Z,17.59
2023-04-19T10:45:49.052Z,17.63
2023-04-19T10:46:48.960Z,17.78
2023-04-19T10:47:48.996Z,18.29
2023-04-19T10:48:48.990Z,18.18
2023-04-19T10:49:48.972Z,18.17
2023-04-19T10:50:48.971Z,18.28
2023-04-19T10:51:49.006Z,18.65
2023-04-19T10:52:48.950Z,18.44
2023-04-19T10:53:49.015Z,18.79
2023-04-19T10:54:48.913Z,18.84
2023-04-19T10:55:48.963Z,19.02
2023-04-19T10:56:48.960Z,18.68
2023-04-19T10:57:48.877Z,18.55
2023-04-19T10:58:48.976Z,18.36
2023-04-19T10:59:48.846Z,18.49
2023-04-19T11:00:48.823Z,18.64
2023-04-19T11:01:48.879Z,18.64
2023-04-19T11:02:48.939Z,18.62
2023-04-19T11:03:48.965Z,18.79
2023-04-19T11:04:48.894Z,19.14
2023-04-19T11:05:48.767Z,18.79
2023-04-19T11:06:48.775Z,18.52
2023-04-19T11:07:48.766Z,18.31
2023-04-19T11:08:48.734Z,18.12
2023-04-19T11:09:48.755Z,18.22
2023-04-19T11:10:48.751Z,17.82
2023-04-19T11:11:48.771Z,17.85
2023-04-19T11:12:48.736Z,17.95
2023-04-19T11:13:48.768Z,17.87
2023-04-19T11:14:48.742Z,17.81
2023-04-19T11:15:48.746Z,18.17
2023-04-19T11:16:48.801Z,17.88
2023-04-19T11:17:52.871Z,17.29
2023-04-19T11:18:49.643Z,17.30
2023-04-19T11:19:48.677Z,17.73
2023-04-19T11:20:48.673Z,18.04
2023-04-19T11:21:48.718Z,17.64
2023-04-19T11:22:48.630Z,17.54
2023-04-19T11:23:49.127Z,17.40
2023-04-19T11:24:48.578Z,17.53
2023-04-19T11:25:48.592Z,18.12
2023-04-19T11:26:48.659Z,18.34
2023-04-19T11:27:48.560Z,18.43
2023-04-19T11:28:48.654Z,18.34
2023-04-19T11:29:48.566Z,18.04
2023-04-19T11:30:48.556Z,18.27
2023-04-19T11:31:48.618Z,18.76
2023-04-19T11:32:48.801Z,18.72
2023-04-19T11:33:48.512Z,18.86
2023-04-19T11:34:48.468Z,18.80
2023-04-19T11:35:48.485Z,18.74
2023-04-19T11:36:48.467Z,18.70
2023-04-19T11:37:48.444Z,18.79
2023-04-19T11:38:48.428Z,18.58
2023-04-19T11:39:48.432Z,18.64
2023-04-19T11:40:48.426Z,18.67
2023-04-19T11:41:48.421Z,18.73
2023-04-19T11:42:48.389Z,19.18
2023-04-19T11:43:48.433Z,19.33
2023-04-19T11:45:03.502Z,19.35
2023-04-19T11:45:48.372Z,18.86
2023-04-19T11:46:48.402Z,18.94
2023-04-19T11:47:48.393Z,19.11
2023-04-19T11:48:48.375Z,19.25
2023-04-19T11:51:14.382Z,19.83
2023-04-19T11:52:14.398Z,20.23
2023-04-19T11:53:14.374Z,20.09
2023-04-19T11:54:14.534Z,20.00
2023-04-19T11:55:14.363Z,19.43
2023-04-19T11:56:14.363Z,19.08
2023-04-19T11:57:14.345Z,18.92
2023-04-19T11:58:14.341Z,19.01
2023-04-19T11:59:14.306Z,18.80
2023-04-19T12:00:14.312Z,18.79
2023-04-19T12:01:14.283Z,19.06
2023-04-19T12:02:14.597Z,19.43
2023-04-19T12:03:14.476Z,19.55
2023-04-19T12:04:14.648Z,19.42
2023-04-19T12:05:14.553Z,19.18
2023-04-19T12:06:14.265Z,18.82
2023-04-19T12:07:14.396Z,18.68
2023-04-19T12:08:14.248Z,18.77
2023-04-19T12:09:14.203Z,18.62
2023-04-19T12:10:14.204Z,18.82
2023-04-19T12:11:14.203Z,18.36
2023-04-19T12:12:14.199Z,18.58
2023-04-19T12:13:14.170Z,18.54
2023-04-19T12:14:14.829Z,18.40
2023-04-19T12:15:15.849Z,18.28
2023-04-19T12:16:14.287Z,18.62
2023-04-19T12:17:14.179Z,18.55
2023-04-19T12:18:14.505Z,18.49
2023-04-19T12:19:14.310Z,18.70
2023-04-19T12:20:14.098Z,18.29
2023-04-19T12:21:14.078Z,18.18
2023-04-19T12:22:14.127Z,17.85
2023-04-19T12:23:14.155Z,17.69
2023-04-19T12:24:21.022Z,17.91
2023-04-19T12:25:14.074Z,18.07
2023-04-19T12:26:14.059Z,18.46
2023-04-19T12:27:15.831Z,18.28
2023-04-19T12:28:14.014Z,18.13
2023-04-19T12:29:14.136Z,17.88
2023-04-19T12:30:14.016Z,17.91
2023-04-19T12:31:13.988Z,17.99
2023-04-19T12:32:14.169Z,18.04
2023-04-19T12:33:13.999Z,17.82
2023-04-19T12:34:13.967Z,17.22
2023-04-19T12:35:13.947Z,16.75
2023-04-19T12:36:13.911Z,16.71
2023-04-19T12:37:13.930Z,16.96
2023-04-19T12:38:13.927Z,16.83
2023-04-19T12:39:14.028Z,16.90
2023-04-19T12:40:13.918Z,16.96
2023-04-19T12:41:13.887Z,17.26
2023-04-19T12:42:13.846Z,17.48
2023-04-19T12:43:13.877Z,17.66
2023-04-19T12:44:13.833Z,17.62
2023-04-19T12:45:13.819Z,17.62
2023-04-19T12:46:13.839Z,17.70
2023-04-19T12:47:13.792Z,17.92
2023-04-19T12:48:13.973Z,18.04
2023-04-19T12:49:14.095Z,18.22
2023-04-19T12:50:13.819Z,18.03
2023-04-19T12:51:13.760Z,17.55
2023-04-19T12:52:13.794Z,17.35
2023-04-19T12:53:13.766Z,17.44
2023-04-19T12:54:13.748Z,17.71
2023-04-19T12:55:13.713Z,17.88
2023-04-19T12:56:13.696Z,17.81
2023-04-19T12:57:13.693Z,18.22
2023-04-19T12:58:13.689Z,18.42
2023-04-19T12:59:14.238Z,18.39
2023-04-19T13:00:13.690Z,18.73
2023-04-19T13:01:13.974Z,18.94
2023-04-19T13:02:37.835Z,19.46
2023-04-19T13:03:13.751Z,20.03
2023-04-19T13:04:13.762Z,20.42
2023-04-19T13:05:13.614Z,20.28
2023-04-19T13:06:13.629Z,19.98
2023-04-19T13:07:13.626Z,19.38